Weather observations for the past three days for
Bozeman, Gallatin Field
Metric (Imperial)
Date Time (mdt) Wind (kph) Vis. (km) Weather Sky Cond. Temperature (ºC) Relative Humidity Wind Chill (°C) Heat Index (°C) Pressure Precipitation (cm)
Air Dwpt 6 hour altimeter (cm) sea level (mb) 1 hr 3 hr 6 hr
Max. Min.
10 14:56 Calm 16.09 Fair CLR 23.9 -2.8 17% 24 76.33 1015.4
10 13:56 NW 6 16.09 Fair CLR 22.8 -3.3 17% 76.35 1016.0
10 12:56 Vrbl 6 16.09 Fair CLR 20.6 -2.8 21% 76.43 1017.4
10 11:56 Calm 16.09 Fair CLR 18.9 -0.6 18.9 2.2 27% 76.5 1018.4
10 09:56 Calm 16.09 Fair CLR 13.3 2.2 47% 76.58 1020.1
10 08:56 Calm 16.09 Fair CLR 10.6 2.2 56% 76.63 1020.3
10 07:56 E 6 16.09 Fair CLR 8.3 1.1 61% 76.66 1020.5
10 06:56 SE 11 16.09 Fair CLR 3.3 -0.6 76% 1 76.66 1021.4
10 05:56 SE 6 16.09 Fair CLR 3.9 -1.1 7.2 0.6 70% 76.66 1021.1
10 04:56 E 9 16.09 Fair CLR 1.7 -1.1 82% -1 76.66 1021.4
10 03:56 S 13 16.09 Fair CLR 4.4 -1.1 68% 2 76.66 1021.2
10 02:56 S 9 16.09 Fair CLR 3.9 -0.6 73% 2 76.66 1021.1
10 01:56 SE 15 16.09 Fair CLR 5 -0.6 67% 2 76.63 1021.0
10 00:56 SE 11 16.09 Fair CLR 5 0 70% 3 76.61 1020.7
09 23:56 SE 13 16.09 Fair CLR 6.7 0.6 18.3 6.7 65% 4 76.58 1019.9
09 22:56 S 13 16.09 Fair CLR 11.1 0 47% 76.58 1019.3
09 21:56 SE 13 16.09 Fair CLR 8.9 0.6 56% 7 76.53 1019.4
09 19:56 SE 7 16.09 A Few Clouds FEW110 17.2 -1.1 29% 76.45 1017.5
09 18:56 N 9 16.09 A Few Clouds FEW110 17.8 -1.7 27% 76.45 1018.0
09 17:56 Vrbl 7 16.09 Fair CLR 18.3 -2.2 18.3 15 25% 76.45 1017.7
09 16:56 SE 7 16.09 Fair CLR 17.8 -2.8 25% 76.45 1018.4
09 15:56 N 17 16.09 Overcast OVC110 16.7 -1.1 30% 76.48 1018.5
09 14:56 N 20 G 30 16.09 Mostly Cloudy BKN110 17.2 -0.6 30% 76.48 1018.5
09 13:56 Vrbl 7 16.09 Overcast BKN085 OVC100 16.1 -2.8 27% 76.45 1017.8
09 12:56 W 11 16.09 Partly Cloudy FEW080 SCT095 16.1 -3.3 26% 76.48 1017.8
09 11:56 Vrbl 9 16.09 Overcast FEW070 OVC095 15.6 -2.8 15.6 1.7 28% 76.48 1018.0
09 10:56 Vrbl 6 16.09 Partly Cloudy SCT090 14.4 -2.8 31% 76.5 1017.9
09 09:56 W 11 16.09 Fair CLR 13.3 -2.8 33% 76.5 1017.8
09 08:56 W 6 16.09 Mostly Cloudy BKN085 10 -1.7 44% 76.48 1018.0
09 07:56 SW 7 16.09 Overcast OVC080 8.9 -1.7 48% 8 76.45 1017.6
09 06:56 SE 6 16.09 Fair CLR 5 0 70% 76.4 1017.4
09 05:56 S 11 16.09 Partly Cloudy SCT120 5.6 -0.6 11.7 1.7 65% 3 76.38 1016.5
09 04:56 SE 6 16.09 Mostly Cloudy BKN110 3.3 0 79% 76.33 1016.6
09 03:56 Calm 16.09 Fair CLR 5.6 0.6 71% 76.3 1015.5
09 02:56 E 7 16.09 Fair CLR 5 0.6 73% 4 76.23 1014.8
09 01:56 SW 7 16.09 Fair CLR 9.4 0.6 55% 9 76.17 1013.3
09 00:56 SW 6 16.09 Fair CLR 10 1.1 54% 76.12 1012.6
08 23:56 Vrbl 7 16.09 Fair CLR 10.6 1.1 20 10.6 52% 76.1 1012.4
08 22:56 NW 13 16.09 Mostly Cloudy BKN100 13.3 2.2 47% 76.05 1011.7
08 21:56 NW 11 16.09 Partly Cloudy SCT100 15 1.7 41% 76.02 1011.4
08 20:56 NW 26 G 39 16.09 Mostly Cloudy BKN110 16.1 1.7 38% 75.97 1011.0
08 19:56 N 13 16.09 Overcast OVC100 17.2 1.1 34% 75.92 1010.2
08 18:56 Calm 16.09 Overcast OVC100 19.4 1.7 31% 75.9 1010.1
08 17:56 E 13 16.09 Fair CLR 20 0 20.6 17.2 26% 75.9 1010.2
08 16:56 NE 9 16.09 Fair CLR 18.9 2.2 33% 75.9 1010.3
08 15:56 Calm 16.09 A Few Clouds FEW090 20 0.6 27% 75.95 1010.8
08 14:56 E 6 16.09 Fair CLR 19.4 0.6 29% 76 1011.8
08 13:56 Vrbl 9 16.09 Fair CLR 18.9 2.8 34% 76.05 1012.2
08 12:56 NW 17 16.09 Fair CLR 19.4 3.3 35% 76.1 1012.6
08 11:56 NE 11 16.09 Fair CLR 17.2 3.3 17.2 2.2 40% 76.15 1013.5
08 10:56 Calm 16.09 Fair CLR 15 3.3 46% 76.2 1014.2
08 09:56 Calm 16.09 Fair CLR 13.3 4.4 55% 76.25 1014.6
08 08:56 Calm 16.09 Fair CLR 10.6 5 69% 76.25 1015.2
08 07:56 SE 9 16.09 Fair CLR 8.3 3.3 71% 7 76.28 1015.4
08 06:56 SE 13 16.09 Fair CLR 4.4 2.2 86% 2 76.25 1015.8
08 05:56 SE 7 16.09 Fair CLR 2.8 1.7 8.9 1.1 93% 1 76.23 1015.6
08 04:56 S 9 16.09 Fair CLR 5 1.7 79% 3 76.23 1014.6
08 03:56 SE 7 16.09 Fair CLR 4.4 2.2 86% 3 76.2 1014.7
08 02:56 NE 7 16.09 Fair CLR 3.9 2.8 93% 2 76.2 1014.7
08 01:56 SE 6 16.09 Partly Cloudy SCT075 5.6 3.9 89% 76.2 1014.4
08 00:56 SE 7 16.09 Fair CLR 6.1 3.9 86% 5 76.2 1014.3
07 23:56 SE 6 16.09 Partly Cloudy SCT110 8.3 5 18.3 7.8 80% 76.17 1014.0
07 22:56 S 11 16.09 Partly Cloudy FEW090 SCT110 10 5 71% 9 76.17 1013.8
07 21:56 SE 13 16.09 Mostly Cloudy SCT085 BKN120 12.8 5.6 62% 76.17 1013.5
07 20:56 W 7 16.09 A Few Clouds FEW120 12.8 2.2 49% 76.12 1013.0
07 19:56 N 15 16.09 Partly Cloudy SCT070 15.6 3.9 46% 76.07 1012.3
07 18:56 N 24 16.09 Partly Cloudy FEW090 SCT120 16.7 3.3 41% 76.05 1011.9
07 17:56 N 19 16.09 Mostly Cloudy BKN090 17.2 3.9 20 16.7 41% 76 1011.1
07 16:56 N 13 G 30 16.09 Partly Cloudy SCT120 19.4 3.3 35% 75.95 1010.4
07 15:56 N 19 16.09 A Few Clouds FEW110 18.3 2.8 36% 75.97 1011.0
Date Time (mdt) Wind (kph) Vis. (km) Weather Sky Cond. Air Dwpt Max. Min. Relative Humidity Wind Chill (°C) Heat Index (°C) altimeter (cm) sea level (mb) 1 hr 3 hr 6 hr
6 hour
Temperature (ºC) Pressure Precipitation (cm)